sensor_id;sensor_type;location;lat;lon;timestamp;temperature;humidity
56234;DHT22;42141;53.240;6.580;2022-12-29T00:01:18;10.40;99.90
56234;DHT22;42141;53.240;6.580;2022-12-29T00:03:47;10.40;99.90
56234;DHT22;42141;53.240;6.580;2022-12-29T00:06:13;10.50;99.90
56234;DHT22;42141;53.240;6.580;2022-12-29T00:08:38;10.40;99.90
56234;DHT22;42141;53.240;6.580;2022-12-29T00:11:21;10.40;99.90
56234;DHT22;42141;53.240;6.580;2022-12-29T00:13:47;10.40;99.90
56234;DHT22;42141;53.240;6.580;2022-12-29T00:16:32;10.40;99.90
56234;DHT22;42141;53.240;6.580;2022-12-29T00:18:58;10.40;99.90
56234;DHT22;42141;53.240;6.580;2022-12-29T00:21:25;10.60;99.90
56234;DHT22;42141;53.240;6.580;2022-12-29T00:24:21;10.40;99.90
56234;DHT22;42141;53.240;6.580;2022-12-29T00:29:46;10.40;99.90
56234;DHT22;42141;53.240;6.580;2022-12-29T00:32:31;10.40;99.90
56234;DHT22;42141;53.240;6.580;2022-12-29T00:37:51;10.40;99.90
56234;DHT22;42141;53.240;6.580;2022-12-29T00:40:36;10.50;99.90
56234;DHT22;42141;53.240;6.580;2022-12-29T00:43:20;10.60;99.90
56234;DHT22;42141;53.240;6.580;2022-12-29T00:46:04;10.60;99.90
56234;DHT22;42141;53.240;6.580;2022-12-29T00:48:30;10.60;99.90
56234;DHT22;42141;53.240;6.580;2022-12-29T00:51:14;10.60;99.90
56234;DHT22;42141;53.240;6.580;2022-12-29T00:53:40;10.60;99.90
56234;DHT22;42141;53.240;6.580;2022-12-29T00:56:05;10.60;99.90
56234;DHT22;42141;53.240;6.580;2022-12-29T00:58:31;10.60;99.90
56234;DHT22;42141;53.240;6.580;2022-12-29T01:01:04;11.10;99.90
56234;DHT22;42141;53.240;6.580;2022-12-29T01:03:31;10.60;99.90
56234;DHT22;42141;53.240;6.580;2022-12-29T01:06:00;10.70;99.90
56234;DHT22;42141;53.240;6.580;2022-12-29T01:08:30;10.70;99.90
56234;DHT22;42141;53.240;6.580;2022-12-29T01:11:04;10.70;99.90
56234;DHT22;42141;53.240;6.580;2022-12-29T01:13:31;10.70;99.90
56234;DHT22;42141;53.240;6.580;2022-12-29T01:15:57;10.80;99.90
56234;DHT22;42141;53.240;6.580;2022-12-29T01:18:23;10.80;99.90
56234;DHT22;42141;53.240;6.580;2022-12-29T01:20:49;10.80;99.90
56234;DHT22;42141;53.240;6.580;2022-12-29T01:23:15;10.80;99.90
56234;DHT22;42141;53.240;6.580;2022-12-29T01:25:41;10.80;99.90
56234;DHT22;42141;53.240;6.580;2022-12-29T01:28:07;10.70;99.90
56234;DHT22;42141;53.240;6.580;2022-12-29T01:30:35;10.70;99.90
56234;DHT22;42141;53.240;6.580;2022-12-29T01:33:01;10.70;99.90
56234;DHT22;42141;53.240;6.580;2022-12-29T01:35:27;10.70;99.90
56234;DHT22;42141;53.240;6.580;2022-12-29T01:37:53;10.70;99.90
56234;DHT22;42141;53.240;6.580;2022-12-29T01:40:19;10.70;99.90
56234;DHT22;42141;53.240;6.580;2022-12-29T01:42:45;10.80;99.90
56234;DHT22;42141;53.240;6.580;2022-12-29T01:45:12;10.70;99.90
56234;DHT22;42141;53.240;6.580;2022-12-29T01:47:43;10.90;99.90
56234;DHT22;42141;53.240;6.580;2022-12-29T01:50:13;10.70;99.90
56234;DHT22;42141;53.240;6.580;2022-12-29T01:52:49;10.70;99.90
56234;DHT22;42141;53.240;6.580;2022-12-29T01:55:16;10.60;99.90
56234;DHT22;42141;53.240;6.580;2022-12-29T01:57:47;10.60;99.90
56234;DHT22;42141;53.240;6.580;2022-12-29T02:00:15;10.60;99.90
56234;DHT22;42141;53.240;6.580;2022-12-29T02:02:44;10.60;99.90
56234;DHT22;42141;53.240;6.580;2022-12-29T02:05:32;10.50;99.90
56234;DHT22;42141;53.240;6.580;2022-12-29T02:08:00;10.50;99.90
56234;DHT22;42141;53.240;6.580;2022-12-29T02:10:29;10.50;99.90
56234;DHT22;42141;53.240;6.580;2022-12-29T02:12:56;10.40;99.90
56234;DHT22;42141;53.240;6.580;2022-12-29T02:21:21;10.40;99.90
56234;DHT22;42141;53.240;6.580;2022-12-29T02:27:14;10.40;99.90
56234;DHT22;42141;53.240;6.580;2022-12-29T02:38:03;10.90;99.90
56234;DHT22;42141;53.240;6.580;2022-12-29T02:40:43;10.50;99.90
56234;DHT22;42141;53.240;6.580;2022-12-29T02:45:56;10.60;99.90
56234;DHT22;42141;53.240;6.580;2022-12-29T02:51:01;10.60;99.90
56234;DHT22;42141;53.240;6.580;2022-12-29T02:53:29;10.60;99.90
56234;DHT22;42141;53.240;6.580;2022-12-29T02:56:14;10.60;99.90
56234;DHT22;42141;53.240;6.580;2022-12-29T02:58:40;10.60;99.90
56234;DHT22;42141;53.240;6.580;2022-12-29T03:01:16;10.70;99.90
56234;DHT22;42141;53.240;6.580;2022-12-29T03:09:38;10.60;99.90
56234;DHT22;42141;53.240;6.580;2022-12-29T03:14:59;10.90;99.90
56234;DHT22;42141;53.240;6.580;2022-12-29T03:17:51;10.60;99.90
56234;DHT22;42141;53.240;6.580;2022-12-29T03:20:24;10.60;99.90
56234;DHT22;42141;53.240;6.580;2022-12-29T03:22:54;10.60;99.90
56234;DHT22;42141;53.240;6.580;2022-12-29T03:28:00;10.60;99.90
56234;DHT22;42141;53.240;6.580;2022-12-29T03:30:28;10.60;99.90
56234;DHT22;42141;53.240;6.580;2022-12-29T03:33:00;10.60;99.90
56234;DHT22;42141;53.240;6.580;2022-12-29T03:35:28;10.60;99.90
56234;DHT22;42141;53.240;6.580;2022-12-29T03:38:11;10.60;99.90
56234;DHT22;42141;53.240;6.580;2022-12-29T03:40:42;10.60;99.90
56234;DHT22;42141;53.240;6.580;2022-12-29T03:43:09;10.50;99.90
56234;DHT22;42141;53.240;6.580;2022-12-29T03:45:36;10.50;99.90
56234;DHT22;42141;53.240;6.580;2022-12-29T03:48:01;10.50;99.90
56234;DHT22;42141;53.240;6.580;2022-12-29T03:50:27;10.50;99.90
56234;DHT22;42141;53.240;6.580;2022-12-29T03:52:53;10.50;99.90
56234;DHT22;42141;53.240;6.580;2022-12-29T03:55:18;10.50;99.90
56234;DHT22;42141;53.240;6.580;2022-12-29T03:57:44;10.50;99.90
56234;DHT22;42141;53.240;6.580;2022-12-29T04:00:10;10.50;99.90
56234;DHT22;42141;53.240;6.580;2022-12-29T04:02:36;10.40;99.90
56234;DHT22;42141;53.240;6.580;2022-12-29T04:05:05;10.40;99.90
56234;DHT22;42141;53.240;6.580;2022-12-29T04:07:31;10.40;99.90
56234;DHT22;42141;53.240;6.580;2022-12-29T04:09:57;10.40;99.90
56234;DHT22;42141;53.240;6.580;2022-12-29T04:12:22;10.40;99.90
56234;DHT22;42141;53.240;6.580;2022-12-29T04:14:48;10.40;99.90
56234;DHT22;42141;53.240;6.580;2022-12-29T04:17:14;10.40;99.90
56234;DHT22;42141;53.240;6.580;2022-12-29T04:19:39;10.30;99.90
56234;DHT22;42141;53.240;6.580;2022-12-29T04:22:05;10.40;99.90
56234;DHT22;42141;53.240;6.580;2022-12-29T04:24:31;10.40;99.90
56234;DHT22;42141;53.240;6.580;2022-12-29T04:26:57;10.40;99.90
56234;DHT22;42141;53.240;6.580;2022-12-29T04:29:22;10.40;99.90
56234;DHT22;42141;53.240;6.580;2022-12-29T04:31:48;10.40;99.90
56234;DHT22;42141;53.240;6.580;2022-12-29T04:34:14;10.40;99.90
56234;DHT22;42141;53.240;6.580;2022-12-29T04:36:39;10.40;99.90
56234;DHT22;42141;53.240;6.580;2022-12-29T04:39:06;10.40;99.90
56234;DHT22;42141;53.240;6.580;2022-12-29T04:41:32;10.40;99.90
56234;DHT22;42141;53.240;6.580;2022-12-29T04:43:57;10.40;99.90
56234;DHT22;42141;53.240;6.580;2022-12-29T04:46:23;10.40;99.90
56234;DHT22;42141;53.240;6.580;2022-12-29T04:48:49;10.40;99.90
56234;DHT22;42141;53.240;6.580;2022-12-29T04:51:15;10.40;99.90
56234;DHT22;42141;53.240;6.580;2022-12-29T04:53:40;10.90;99.90
56234;DHT22;42141;53.240;6.580;2022-12-29T04:56:06;10.40;99.90
56234;DHT22;42141;53.240;6.580;2022-12-29T04:58:33;10.40;99.90
56234;DHT22;42141;53.240;6.580;2022-12-29T05:00:58;10.30;99.90
56234;DHT22;42141;53.240;6.580;2022-12-29T05:03:24;10.30;99.90
56234;DHT22;42141;53.240;6.580;2022-12-29T05:05:53;10.20;99.90
56234;DHT22;42141;53.240;6.580;2022-12-29T05:08:19;10.10;99.90
56234;DHT22;42141;53.240;6.580;2022-12-29T05:10:45;10.10;99.90
56234;DHT22;42141;53.240;6.580;2022-12-29T05:13:13;10.10;99.90
56234;DHT22;42141;53.240;6.580;2022-12-29T05:15:39;10.00;99.90
56234;DHT22;42141;53.240;6.580;2022-12-29T05:18:05;10.00;99.90
56234;DHT22;42141;53.240;6.580;2022-12-29T05:20:31;10.80;99.90
56234;DHT22;42141;53.240;6.580;2022-12-29T05:22:56;10.10;99.90
56234;DHT22;42141;53.240;6.580;2022-12-29T05:25:22;10.40;99.90
56234;DHT22;42141;53.240;6.580;2022-12-29T05:27:48;9.80;99.90
56234;DHT22;42141;53.240;6.580;2022-12-29T05:30:14;9.80;99.90
56234;DHT22;42141;53.240;6.580;2022-12-29T05:32:39;9.80;99.90
56234;DHT22;42141;53.240;6.580;2022-12-29T05:35:06;10.10;99.90
56234;DHT22;42141;53.240;6.580;2022-12-29T05:37:31;9.70;99.90
56234;DHT22;42141;53.240;6.580;2022-12-29T05:39:57;9.80;99.90
56234;DHT22;42141;53.240;6.580;2022-12-29T05:42:24;9.70;99.90
56234;DHT22;42141;53.240;6.580;2022-12-29T05:44:50;9.70;99.90
56234;DHT22;42141;53.240;6.580;2022-12-29T05:47:19;9.70;99.90
56234;DHT22;42141;53.240;6.580;2022-12-29T05:49:45;9.70;99.90
56234;DHT22;42141;53.240;6.580;2022-12-29T05:52:10;9.70;99.90
56234;DHT22;42141;53.240;6.580;2022-12-29T05:54:36;10.50;99.90
56234;DHT22;42141;53.240;6.580;2022-12-29T05:57:02;9.70;99.90
56234;DHT22;42141;53.240;6.580;2022-12-29T05:59:27;9.60;99.90
56234;DHT22;42141;53.240;6.580;2022-12-29T06:01:53;9.70;99.90
56234;DHT22;42141;53.240;6.580;2022-12-29T06:04:19;9.80;99.90
56234;DHT22;42141;53.240;6.580;2022-12-29T06:06:45;9.70;99.90
56234;DHT22;42141;53.240;6.580;2022-12-29T06:09:10;9.70;99.90
56234;DHT22;42141;53.240;6.580;2022-12-29T06:11:36;9.70;99.90
56234;DHT22;42141;53.240;6.580;2022-12-29T06:14:02;9.70;99.90
56234;DHT22;42141;53.240;6.580;2022-12-29T06:16:28;9.70;99.90
56234;DHT22;42141;53.240;6.580;2022-12-29T06:18:54;9.70;99.90
56234;DHT22;42141;53.240;6.580;2022-12-29T06:21:20;9.70;99.90
56234;DHT22;42141;53.240;6.580;2022-12-29T06:23:45;9.80;99.90
56234;DHT22;42141;53.240;6.580;2022-12-29T06:26:11;9.80;99.90
56234;DHT22;42141;53.240;6.580;2022-12-29T06:28:37;10.10;99.90
56234;DHT22;42141;53.240;6.580;2022-12-29T06:31:03;9.80;99.90
56234;DHT22;42141;53.240;6.580;2022-12-29T06:33:29;9.80;99.90
56234;DHT22;42141;53.240;6.580;2022-12-29T06:35:55;9.70;99.90
56234;DHT22;42141;53.240;6.580;2022-12-29T06:38:20;9.70;99.90
56234;DHT22;42141;53.240;6.580;2022-12-29T06:40:46;9.70;99.90
56234;DHT22;42141;53.240;6.580;2022-12-29T06:43:12;10.00;99.90
56234;DHT22;42141;53.240;6.580;2022-12-29T06:45:39;9.70;99.90
56234;DHT22;42141;53.240;6.580;2022-12-29T06:48:06;9.60;99.90
56234;DHT22;42141;53.240;6.580;2022-12-29T06:50:31;9.70;99.90
56234;DHT22;42141;53.240;6.580;2022-12-29T06:52:57;9.70;99.90
56234;DHT22;42141;53.240;6.580;2022-12-29T06:55:23;10.70;99.90
56234;DHT22;42141;53.240;6.580;2022-12-29T06:57:48;10.00;99.90
56234;DHT22;42141;53.240;6.580;2022-12-29T07:00:14;9.70;99.90
56234;DHT22;42141;53.240;6.580;2022-12-29T07:02:40;9.70;99.90
56234;DHT22;42141;53.240;6.580;2022-12-29T07:05:06;9.60;99.90
56234;DHT22;42141;53.240;6.580;2022-12-29T07:07:33;9.60;99.90
56234;DHT22;42141;53.240;6.580;2022-12-29T07:09:58;9.60;99.90
56234;DHT22;42141;53.240;6.580;2022-12-29T07:12:24;9.60;99.90
56234;DHT22;42141;53.240;6.580;2022-12-29T07:14:50;9.60;99.90
56234;DHT22;42141;53.240;6.580;2022-12-29T07:17:16;9.50;99.90
56234;DHT22;42141;53.240;6.580;2022-12-29T07:19:41;9.60;99.90
56234;DHT22;42141;53.240;6.580;2022-12-29T07:22:07;9.60;99.90
56234;DHT22;42141;53.240;6.580;2022-12-29T07:24:33;10.50;99.90
56234;DHT22;42141;53.240;6.580;2022-12-29T07:26:59;9.60;99.90
56234;DHT22;42141;53.240;6.580;2022-12-29T07:29:24;9.60;99.90
56234;DHT22;42141;53.240;6.580;2022-12-29T07:31:50;9.60;99.90
56234;DHT22;42141;53.240;6.580;2022-12-29T07:34:16;9.80;99.90
56234;DHT22;42141;53.240;6.580;2022-12-29T07:36:41;9.70;99.90
56234;DHT22;42141;53.240;6.580;2022-12-29T07:39:07;9.70;99.90
56234;DHT22;42141;53.240;6.580;2022-12-29T07:41:33;9.70;99.90
56234;DHT22;42141;53.240;6.580;2022-12-29T07:44:00;9.70;99.90
56234;DHT22;42141;53.240;6.580;2022-12-29T07:46:25;9.90;99.90
56234;DHT22;42141;53.240;6.580;2022-12-29T07:48:51;9.80;99.90
56234;DHT22;42141;53.240;6.580;2022-12-29T07:51:17;9.80;99.90
56234;DHT22;42141;53.240;6.580;2022-12-29T07:53:42;9.80;99.90
56234;DHT22;42141;53.240;6.580;2022-12-29T07:56:08;9.90;99.90
56234;DHT22;42141;53.240;6.580;2022-12-29T07:58:34;9.80;99.90
56234;DHT22;42141;53.240;6.580;2022-12-29T08:00:59;9.80;99.90
56234;DHT22;42141;53.240;6.580;2022-12-29T08:03:25;10.50;99.90
56234;DHT22;42141;53.240;6.580;2022-12-29T08:05:52;10.10;99.90
56234;DHT22;42141;53.240;6.580;2022-12-29T08:08:18;9.80;99.90
56234;DHT22;42141;53.240;6.580;2022-12-29T08:10:44;10.40;99.90
56234;DHT22;42141;53.240;6.580;2022-12-29T08:13:09;10.10;99.90
56234;DHT22;42141;53.240;6.580;2022-12-29T08:15:37;9.80;99.90
56234;DHT22;42141;53.240;6.580;2022-12-29T08:18:03;9.70;99.90
56234;DHT22;42141;53.240;6.580;2022-12-29T08:20:28;9.80;99.90
56234;DHT22;42141;53.240;6.580;2022-12-29T08:22:54;9.80;99.90
56234;DHT22;42141;53.240;6.580;2022-12-29T08:25:20;9.70;99.90
56234;DHT22;42141;53.240;6.580;2022-12-29T08:27:46;9.70;99.90
56234;DHT22;42141;53.240;6.580;2022-12-29T08:30:12;9.90;99.90
56234;DHT22;42141;53.240;6.580;2022-12-29T08:32:38;9.70;99.90
56234;DHT22;42141;53.240;6.580;2022-12-29T08:35:04;9.80;99.90
56234;DHT22;42141;53.240;6.580;2022-12-29T08:37:32;9.80;99.90
56234;DHT22;42141;53.240;6.580;2022-12-29T08:39:58;9.80;99.90
56234;DHT22;42141;53.240;6.580;2022-12-29T08:42:25;9.80;99.90
56234;DHT22;42141;53.240;6.580;2022-12-29T08:44:58;9.70;99.90
56234;DHT22;42141;53.240;6.580;2022-12-29T08:47:25;9.70;99.90
56234;DHT22;42141;53.240;6.580;2022-12-29T08:49:51;9.60;99.90
56234;DHT22;42141;53.240;6.580;2022-12-29T08:52:17;9.50;99.90
56234;DHT22;42141;53.240;6.580;2022-12-29T08:54:42;9.50;99.90
56234;DHT22;42141;53.240;6.580;2022-12-29T08:57:08;9.50;99.90
56234;DHT22;42141;53.240;6.580;2022-12-29T08:59:34;9.50;99.90
56234;DHT22;42141;53.240;6.580;2022-12-29T09:02:00;10.00;99.90
56234;DHT22;42141;53.240;6.580;2022-12-29T09:04:27;9.40;99.90
56234;DHT22;42141;53.240;6.580;2022-12-29T09:06:53;9.50;99.90
56234;DHT22;42141;53.240;6.580;2022-12-29T09:09:19;9.50;99.90
56234;DHT22;42141;53.240;6.580;2022-12-29T09:11:45;9.50;99.90
56234;DHT22;42141;53.240;6.580;2022-12-29T09:14:11;9.50;99.90
56234;DHT22;42141;53.240;6.580;2022-12-29T09:16:37;9.30;99.90
56234;DHT22;42141;53.240;6.580;2022-12-29T09:19:03;9.50;99.90
56234;DHT22;42141;53.240;6.580;2022-12-29T09:21:29;9.80;99.90
56234;DHT22;42141;53.240;6.580;2022-12-29T09:23:55;10.40;99.90
56234;DHT22;42141;53.240;6.580;2022-12-29T09:26:21;9.90;99.90
56234;DHT22;42141;53.240;6.580;2022-12-29T09:28:46;9.40;99.90
56234;DHT22;42141;53.240;6.580;2022-12-29T09:31:13;9.60;99.90
56234;DHT22;42141;53.240;6.580;2022-12-29T09:33:38;9.40;99.90
56234;DHT22;42141;53.240;6.580;2022-12-29T09:36:04;9.50;99.90
56234;DHT22;42141;53.240;6.580;2022-12-29T09:38:30;9.50;99.90
56234;DHT22;42141;53.240;6.580;2022-12-29T09:41:49;9.50;99.90
56234;DHT22;42141;53.240;6.580;2022-12-29T09:44:13;9.60;99.90
56234;DHT22;42141;53.240;6.580;2022-12-29T09:46:44;9.50;99.90
56234;DHT22;42141;53.240;6.580;2022-12-29T09:52:11;9.50;99.90
56234;DHT22;42141;53.240;6.580;2022-12-29T09:54:39;9.50;99.90
56234;DHT22;42141;53.240;6.580;2022-12-29T09:57:26;9.50;99.90
56234;DHT22;42141;53.240;6.580;2022-12-29T09:59:57;9.40;99.90
56234;DHT22;42141;53.240;6.580;2022-12-29T10:02:40;9.40;99.90
56234;DHT22;42141;53.240;6.580;2022-12-29T10:05:33;9.50;99.90
56234;DHT22;42141;53.240;6.580;2022-12-29T10:08:07;9.50;99.90
56234;DHT22;42141;53.240;6.580;2022-12-29T10:10:56;9.40;99.90
56234;DHT22;42141;53.240;6.580;2022-12-29T10:13:37;9.40;99.90
56234;DHT22;42141;53.240;6.580;2022-12-29T10:16:23;9.40;99.90
56234;DHT22;42141;53.240;6.580;2022-12-29T10:22:45;9.30;99.90
56234;DHT22;42141;53.240;6.580;2022-12-29T10:24:41;9.30;99.90
56234;DHT22;42141;53.240;6.580;2022-12-29T10:27:14;9.40;99.90
56234;DHT22;42141;53.240;6.580;2022-12-29T10:29:55;8.70;99.90
56234;DHT22;42141;53.240;6.580;2022-12-29T10:32:38;9.20;99.90
56234;DHT22;42141;53.240;6.580;2022-12-29T10:35:28;9.40;99.90
56234;DHT22;42141;53.240;6.580;2022-12-29T10:37:59;9.10;99.90
56234;DHT22;42141;53.240;6.580;2022-12-29T10:40:40;9.10;99.90
56234;DHT22;42141;53.240;6.580;2022-12-29T10:45:48;9.00;99.90
56234;DHT22;42141;53.240;6.580;2022-12-29T10:48:21;9.00;99.90
56234;DHT22;42141;53.240;6.580;2022-12-29T10:50:49;9.00;99.90
56234;DHT22;42141;53.240;6.580;2022-12-29T10:53:20;9.30;99.90
56234;DHT22;42141;53.240;6.580;2022-12-29T10:55:48;9.00;99.90
56234;DHT22;42141;53.240;6.580;2022-12-29T10:58:15;9.10;99.90
56234;DHT22;42141;53.240;6.580;2022-12-29T11:00:42;9.10;99.90
56234;DHT22;42141;53.240;6.580;2022-12-29T11:08:28;9.20;99.90
56234;DHT22;42141;53.240;6.580;2022-12-29T11:11:04;9.30;99.90
56234;DHT22;42141;53.240;6.580;2022-12-29T11:13:33;9.30;99.90
56234;DHT22;42141;53.240;6.580;2022-12-29T11:15:59;9.30;99.90
56234;DHT22;42141;53.240;6.580;2022-12-29T11:18:39;9.40;99.90
56234;DHT22;42141;53.240;6.580;2022-12-29T11:21:25;9.40;99.90
56234;DHT22;42141;53.240;6.580;2022-12-29T11:24:00;8.90;99.90
56234;DHT22;42141;53.240;6.580;2022-12-29T11:26:27;9.40;99.90
56234;DHT22;42141;53.240;6.580;2022-12-29T11:29:20;9.40;99.90
56234;DHT22;42141;53.240;6.580;2022-12-29T11:31:57;9.50;99.90
56234;DHT22;42141;53.240;6.580;2022-12-29T11:37:04;9.50;99.90
56234;DHT22;42141;53.240;6.580;2022-12-29T11:42:04;9.60;99.90
56234;DHT22;42141;53.240;6.580;2022-12-29T11:44:43;9.80;99.90
56234;DHT22;42141;53.240;6.580;2022-12-29T11:49:53;9.60;99.90
56234;DHT22;42141;53.240;6.580;2022-12-29T11:52:24;9.70;99.90
56234;DHT22;42141;53.240;6.580;2022-12-29T11:54:52;9.60;99.90
56234;DHT22;42141;53.240;6.580;2022-12-29T11:57:19;9.60;99.90
56234;DHT22;42141;53.240;6.580;2022-12-29T12:02:38;9.80;99.90
56234;DHT22;42141;53.240;6.580;2022-12-29T12:05:34;9.70;99.90
56234;DHT22;42141;53.240;6.580;2022-12-29T12:10:46;9.60;99.90
56234;DHT22;42141;53.240;6.580;2022-12-29T12:16:32;9.60;99.90
56234;DHT22;42141;53.240;6.580;2022-12-29T12:19:05;9.60;99.90
56234;DHT22;42141;53.240;6.580;2022-12-29T12:21:38;9.60;99.90
56234;DHT22;42141;53.240;6.580;2022-12-29T12:27:20;10.00;99.90
56234;DHT22;42141;53.240;6.580;2022-12-29T12:34:54;9.70;99.90
56234;DHT22;42141;53.240;6.580;2022-12-29T12:37:33;9.70;99.90
56234;DHT22;42141;53.240;6.580;2022-12-29T12:40:23;9.80;99.90
56234;DHT22;42141;53.240;6.580;2022-12-29T12:44:10;9.70;99.90
56234;DHT22;42141;53.240;6.580;2022-12-29T12:46:33;9.70;99.90
56234;DHT22;42141;53.240;6.580;2022-12-29T12:49:41;9.70;99.90
56234;DHT22;42141;53.240;6.580;2022-12-29T12:52:33;9.60;99.90
56234;DHT22;42141;53.240;6.580;2022-12-29T13:00:19;9.50;99.90
56234;DHT22;42141;53.240;6.580;2022-12-29T13:03:13;9.60;99.90
56234;DHT22;42141;53.240;6.580;2022-12-29T13:12:24;9.60;99.90
56234;DHT22;42141;53.240;6.580;2022-12-29T13:23:34;9.70;99.90
56234;DHT22;42141;53.240;6.580;2022-12-29T13:31:51;9.50;99.90
56234;DHT22;42141;53.240;6.580;2022-12-29T13:34:27;9.40;99.90
56234;DHT22;42141;53.240;6.580;2022-12-29T13:37:03;9.40;99.90
56234;DHT22;42141;53.240;6.580;2022-12-29T13:39:37;9.30;99.90
56234;DHT22;42141;53.240;6.580;2022-12-29T13:42:04;9.30;99.90
56234;DHT22;42141;53.240;6.580;2022-12-29T13:44:40;9.30;99.90
56234;DHT22;42141;53.240;6.580;2022-12-29T13:49:50;9.20;99.90
56234;DHT22;42141;53.240;6.580;2022-12-29T13:55:29;9.20;99.90
56234;DHT22;42141;53.240;6.580;2022-12-29T13:58:05;9.20;99.90
56234;DHT22;42141;53.240;6.580;2022-12-29T14:00:48;9.30;99.90
56234;DHT22;42141;53.240;6.580;2022-12-29T14:06:20;9.40;99.90
56234;DHT22;42141;53.240;6.580;2022-12-29T14:08:48;9.50;99.90
56234;DHT22;42141;53.240;6.580;2022-12-29T14:11:15;9.50;99.90
56234;DHT22;42141;53.240;6.580;2022-12-29T14:13:44;9.60;99.90
56234;DHT22;42141;53.240;6.580;2022-12-29T14:16:28;9.60;99.90
56234;DHT22;42141;53.240;6.580;2022-12-29T14:18:56;9.50;99.90
56234;DHT22;42141;53.240;6.580;2022-12-29T14:21:29;9.50;99.90
56234;DHT22;42141;53.240;6.580;2022-12-29T14:24:26;9.40;99.90
56234;DHT22;42141;53.240;6.580;2022-12-29T14:26:46;9.30;99.90
56234;DHT22;42141;53.240;6.580;2022-12-29T14:38:22;9.20;99.90
56234;DHT22;42141;53.240;6.580;2022-12-29T14:40:49;9.20;99.90
56234;DHT22;42141;53.240;6.580;2022-12-29T14:43:25;9.10;99.90
56234;DHT22;42141;53.240;6.580;2022-12-29T14:45:59;9.10;99.90
56234;DHT22;42141;53.240;6.580;2022-12-29T14:48:33;9.80;99.90
56234;DHT22;42141;53.240;6.580;2022-12-29T14:51:00;7.90;99.90
56234;DHT22;42141;53.240;6.580;2022-12-29T14:53:48;8.90;99.90
56234;DHT22;42141;53.240;6.580;2022-12-29T14:56:20;8.90;99.90
56234;DHT22;42141;53.240;6.580;2022-12-29T14:58:57;8.80;99.90
56234;DHT22;42141;53.240;6.580;2022-12-29T15:01:43;9.60;99.90
56234;DHT22;42141;53.240;6.580;2022-12-29T15:04:25;8.80;99.90
56234;DHT22;42141;53.240;6.580;2022-12-29T15:06:53;7.90;99.90
56234;DHT22;42141;53.240;6.580;2022-12-29T15:09:33;8.70;99.90
56234;DHT22;42141;53.240;6.580;2022-12-29T15:12:22;8.80;99.90
56234;DHT22;42141;53.240;6.580;2022-12-29T15:14:57;8.60;99.90
56234;DHT22;42141;53.240;6.580;2022-12-29T15:17:25;8.60;99.90
56234;DHT22;42141;53.240;6.580;2022-12-29T15:19:52;8.50;99.90
56234;DHT22;42141;53.240;6.580;2022-12-29T15:22:18;8.60;99.90
56234;DHT22;42141;53.240;6.580;2022-12-29T15:24:44;8.60;99.90
56234;DHT22;42141;53.240;6.580;2022-12-29T15:27:13;8.50;99.90
56234;DHT22;42141;53.240;6.580;2022-12-29T15:29:44;8.40;99.90
56234;DHT22;42141;53.240;6.580;2022-12-29T15:34:44;8.50;99.90
56234;DHT22;42141;53.240;6.580;2022-12-29T15:37:34;8.60;99.90
56234;DHT22;42141;53.240;6.580;2022-12-29T15:40:03;8.30;99.90
56234;DHT22;42141;53.240;6.580;2022-12-29T15:45:14;8.30;99.90
56234;DHT22;42141;53.240;6.580;2022-12-29T15:47:44;8.30;99.90
56234;DHT22;42141;53.240;6.580;2022-12-29T15:50:28;8.20;99.90
56234;DHT22;42141;53.240;6.580;2022-12-29T15:52:55;8.30;99.90
56234;DHT22;42141;53.240;6.580;2022-12-29T15:55:34;8.20;99.90
56234;DHT22;42141;53.240;6.580;2022-12-29T15:58:03;8.20;99.90
56234;DHT22;42141;53.240;6.580;2022-12-29T16:00:34;8.20;99.90
56234;DHT22;42141;53.240;6.580;2022-12-29T16:03:04;8.10;99.90
56234;DHT22;42141;53.240;6.580;2022-12-29T16:05:39;8.10;99.90
56234;DHT22;42141;53.240;6.580;2022-12-29T16:08:27;8.10;99.90
56234;DHT22;42141;53.240;6.580;2022-12-29T16:10:54;8.20;99.90
56234;DHT22;42141;53.240;6.580;2022-12-29T16:13:26;8.10;99.90
56234;DHT22;42141;53.240;6.580;2022-12-29T16:16:00;8.20;99.90
56234;DHT22;42141;53.240;6.580;2022-12-29T16:18:30;8.20;99.90
56234;DHT22;42141;53.240;6.580;2022-12-29T16:20:58;8.30;99.90
56234;DHT22;42141;53.240;6.580;2022-12-29T16:23:27;8.30;99.90
56234;DHT22;42141;53.240;6.580;2022-12-29T16:25:55;8.30;99.90
56234;DHT22;42141;53.240;6.580;2022-12-29T16:28:59;8.30;99.90
56234;DHT22;42141;53.240;6.580;2022-12-29T16:31:53;8.30;99.90
56234;DHT22;42141;53.240;6.580;2022-12-29T16:34:42;8.30;99.90
56234;DHT22;42141;53.240;6.580;2022-12-29T16:37:29;8.00;99.90
56234;DHT22;42141;53.240;6.580;2022-12-29T16:39:55;8.10;99.90
56234;DHT22;42141;53.240;6.580;2022-12-29T16:42:46;7.50;99.90
56234;DHT22;42141;53.240;6.580;2022-12-29T16:50:37;7.90;99.90
56234;DHT22;42141;53.240;6.580;2022-12-29T16:53:04;7.90;99.90
56234;DHT22;42141;53.240;6.580;2022-12-29T16:55:31;7.80;99.90
56234;DHT22;42141;53.240;6.580;2022-12-29T16:57:58;7.70;99.90
56234;DHT22;42141;53.240;6.580;2022-12-29T17:00:27;7.70;99.90
56234;DHT22;42141;53.240;6.580;2022-12-29T17:02:58;7.60;99.90
56234;DHT22;42141;53.240;6.580;2022-12-29T17:05:25;7.90;99.90
56234;DHT22;42141;53.240;6.580;2022-12-29T17:07:52;7.50;99.90
56234;DHT22;42141;53.240;6.580;2022-12-29T17:10:18;8.20;99.90
56234;DHT22;42141;53.240;6.580;2022-12-29T17:12:46;8.30;99.90
56234;DHT22;42141;53.240;6.580;2022-12-29T17:15:27;7.40;99.90
56234;DHT22;42141;53.240;6.580;2022-12-29T17:17:59;7.40;99.90
56234;DHT22;42141;53.240;6.580;2022-12-29T17:20:30;7.30;99.90
56234;DHT22;42141;53.240;6.580;2022-12-29T17:22:57;7.30;99.90
56234;DHT22;42141;53.240;6.580;2022-12-29T17:25:34;8.30;99.90
56234;DHT22;42141;53.240;6.580;2022-12-29T17:28:02;7.30;99.90
56234;DHT22;42141;53.240;6.580;2022-12-29T17:30:30;7.50;99.90
56234;DHT22;42141;53.240;6.580;2022-12-29T17:33:03;7.30;99.90
56234;DHT22;42141;53.240;6.580;2022-12-29T17:35:29;7.90;99.90
56234;DHT22;42141;53.240;6.580;2022-12-29T17:37:58;7.40;99.90
56234;DHT22;42141;53.240;6.580;2022-12-29T17:40:27;7.40;99.90
56234;DHT22;42141;53.240;6.580;2022-12-29T17:42:55;7.40;99.90
56234;DHT22;42141;53.240;6.580;2022-12-29T17:45:26;7.50;99.90
56234;DHT22;42141;53.240;6.580;2022-12-29T17:47:53;7.50;99.90
56234;DHT22;42141;53.240;6.580;2022-12-29T17:50:21;7.60;99.90
56234;DHT22;42141;53.240;6.580;2022-12-29T17:52:51;7.60;99.90
56234;DHT22;42141;53.240;6.580;2022-12-29T17:55:20;8.10;99.90
56234;DHT22;42141;53.240;6.580;2022-12-29T17:57:46;8.30;99.90
56234;DHT22;42141;53.240;6.580;2022-12-29T18:00:18;7.80;99.90
56234;DHT22;42141;53.240;6.580;2022-12-29T18:02:45;7.70;99.90
56234;DHT22;42141;53.240;6.580;2022-12-29T18:05:24;7.80;99.90
56234;DHT22;42141;53.240;6.580;2022-12-29T18:07:52;7.80;99.90
56234;DHT22;42141;53.240;6.580;2022-12-29T18:10:19;7.80;99.90
56234;DHT22;42141;53.240;6.580;2022-12-29T18:12:46;7.80;99.90
56234;DHT22;42141;53.240;6.580;2022-12-29T18:15:34;8.00;99.90